sensor_id;sensor_type;location;lat;lon;timestamp;pressure;altitude;pressure_sealevel;temperature;humidity
61554;BME280;47425;51.976;5.326;2023-02-04T00:00:11;103104.94;;;14.84;50.31
61554;BME280;47425;51.976;5.326;2023-02-04T00:02:59;103101.47;;;14.82;50.58
61554;BME280;47425;51.976;5.326;2023-02-04T00:05:27;103104.94;;;14.90;50.10
61554;BME280;47425;51.976;5.326;2023-02-04T00:07:53;103110.22;;;14.93;50.24
61554;BME280;47425;51.976;5.326;2023-02-04T00:10:21;103114.59;;;15.00;50.00
61554;BME280;47425;51.976;5.326;2023-02-04T00:12:49;103121.63;;;15.07;49.38
61554;BME280;47425;51.976;5.326;2023-02-04T00:15:15;103118.13;;;14.94;50.35
61554;BME280;47425;51.976;5.326;2023-02-04T00:17:42;103124.28;;;14.95;50.01
61554;BME280;47425;51.976;5.326;2023-02-04T00:20:09;103128.66;;;14.94;49.87
61554;BME280;47425;51.976;5.326;2023-02-04T00:22:37;103124.25;;;15.10;49.84
61554;BME280;47425;51.976;5.326;2023-02-04T00:25:05;103120.72;;;15.13;49.85
61554;BME280;47425;51.976;5.326;2023-02-04T00:27:33;103129.50;;;15.18;49.39
61554;BME280;47425;51.976;5.326;2023-02-04T00:29:59;103126.88;;;15.23;49.57
61554;BME280;47425;51.976;5.326;2023-02-04T00:32:27;103136.50;;;15.30;49.39
61554;BME280;47425;51.976;5.326;2023-02-04T00:34:54;103135.69;;;15.19;49.74
61554;BME280;47425;51.976;5.326;2023-02-04T00:37:20;103131.34;;;14.84;50.19
61554;BME280;47425;51.976;5.326;2023-02-04T00:39:48;103129.59;;;14.41;50.59
61554;BME280;47425;51.976;5.326;2023-02-04T00:42:15;103137.44;;;14.08;50.10
61554;BME280;47425;51.976;5.326;2023-02-04T00:44:43;103116.19;;;13.45;51.85
61554;BME280;47425;51.976;5.326;2023-02-04T00:47:10;103136.38;;;13.43;53.18
61554;BME280;47425;51.976;5.326;2023-02-04T00:49:38;103142.53;;;13.45;52.51
61554;BME280;47425;51.976;5.326;2023-02-04T00:52:05;103136.41;;;13.49;52.76
61554;BME280;47425;51.976;5.326;2023-02-04T00:54:31;103148.69;;;13.55;52.70
61554;BME280;47425;51.976;5.326;2023-02-04T00:56:58;103154.81;;;13.49;52.63
61554;BME280;47425;51.976;5.326;2023-02-04T00:59:26;103157.50;;;13.55;51.92
61554;BME280;47425;51.976;5.326;2023-02-04T01:01:56;103161.84;;;13.52;51.76
61554;BME280;47425;51.976;5.326;2023-02-04T01:04:24;103160.94;;;13.39;51.64
61554;BME280;47425;51.976;5.326;2023-02-04T01:06:53;103155.44;;;13.05;52.53
61554;BME280;47425;51.976;5.326;2023-02-04T01:09:20;103166.78;;;12.96;53.82
61554;BME280;47425;51.976;5.326;2023-02-04T01:11:47;103164.78;;;12.64;52.97
61554;BME280;47425;51.976;5.326;2023-02-04T01:14:13;103165.63;;;12.58;54.46
61554;BME280;47425;51.976;5.326;2023-02-04T01:16:41;103171.00;;;12.75;53.79
61554;BME280;47425;51.976;5.326;2023-02-04T01:19:09;103160.56;;;12.85;54.56
61554;BME280;47425;51.976;5.326;2023-02-04T01:21:36;103164.16;;;12.98;53.48
61554;BME280;47425;51.976;5.326;2023-02-04T01:24:03;103167.66;;;12.95;53.58
61554;BME280;47425;51.976;5.326;2023-02-04T01:26:51;103182.50;;;12.85;53.44
61554;BME280;47425;51.976;5.326;2023-02-04T01:29:18;103177.09;;;12.71;54.82
61554;BME280;47425;51.976;5.326;2023-02-04T01:31:45;103198.06;;;12.62;54.91
61554;BME280;47425;51.976;5.326;2023-02-04T01:34:14;103195.28;;;12.47;55.65
61554;BME280;47425;51.976;5.326;2023-02-04T01:36:42;103195.09;;;12.28;55.33
61554;BME280;47425;51.976;5.326;2023-02-04T01:39:09;103206.28;;;12.08;55.60
61554;BME280;47425;51.976;5.326;2023-02-04T01:41:36;103190.38;;;11.96;55.38
61554;BME280;47425;51.976;5.326;2023-02-04T01:44:04;103200.00;;;11.96;56.65
61554;BME280;47425;51.976;5.326;2023-02-04T01:46:31;103202.75;;;12.03;56.60
61554;BME280;47425;51.976;5.326;2023-02-04T01:48:58;103204.47;;;12.03;57.22
61554;BME280;47425;51.976;5.326;2023-02-04T01:51:27;103213.28;;;12.08;56.89
61554;BME280;47425;51.976;5.326;2023-02-04T01:53:57;103211.59;;;12.15;56.72
61554;BME280;47425;51.976;5.326;2023-02-04T01:56:26;103214.34;;;12.27;56.60
61554;BME280;47425;51.976;5.326;2023-02-04T01:58:55;103210.88;;;12.28;56.37
61554;BME280;47425;51.976;5.326;2023-02-04T02:01:36;103217.78;;;12.20;56.02
61554;BME280;47425;51.976;5.326;2023-02-04T02:04:06;103209.50;;;11.86;57.73
61554;BME280;47425;51.976;5.326;2023-02-04T02:06:35;103223.53;;;11.91;57.67
61554;BME280;47425;51.976;5.326;2023-02-04T02:09:03;103218.28;;;11.89;56.77
61554;BME280;47425;51.976;5.326;2023-02-04T02:11:31;103217.34;;;11.84;58.31
61554;BME280;47425;51.976;5.326;2023-02-04T02:13:59;103219.09;;;11.85;56.74
61554;BME280;47425;51.976;5.326;2023-02-04T02:16:25;103230.19;;;11.63;57.18
61554;BME280;47425;51.976;5.326;2023-02-04T02:18:52;103230.66;;;11.34;57.85
61554;BME280;47425;51.976;5.326;2023-02-04T02:21:25;103209.56;;;11.26;59.24
61554;BME280;47425;51.976;5.326;2023-02-04T02:23:56;103228.47;;;11.63;58.45
61554;BME280;47425;51.976;5.326;2023-02-04T02:26:26;103231.41;;;11.91;58.92
61554;BME280;47425;51.976;5.326;2023-02-04T02:28:54;103231.75;;;12.13;58.43
61554;BME280;47425;51.976;5.326;2023-02-04T02:31:21;103230.06;;;12.19;57.76
61554;BME280;47425;51.976;5.326;2023-02-04T02:33:48;103232.81;;;12.33;57.04
61554;BME280;47425;51.976;5.326;2023-02-04T02:36:15;103241.44;;;12.20;56.94
61554;BME280;47425;51.976;5.326;2023-02-04T02:38:43;103241.28;;;12.06;58.00
61554;BME280;47425;51.976;5.326;2023-02-04T02:41:11;103239.41;;;11.96;57.10
61554;BME280;47425;51.976;5.326;2023-02-04T02:43:38;103240.91;;;11.80;57.91
61554;BME280;47425;51.976;5.326;2023-02-04T02:46:06;103236.59;;;11.82;58.47
61554;BME280;47425;51.976;5.326;2023-02-04T02:48:33;103232.28;;;11.88;58.14
61554;BME280;47425;51.976;5.326;2023-02-04T02:51:00;103232.34;;;11.93;58.32
61554;BME280;47425;51.976;5.326;2023-02-04T02:53:27;103234.25;;;12.05;57.91
61554;BME280;47425;51.976;5.326;2023-02-04T02:55:55;103230.13;;;12.27;57.43
61554;BME280;47425;51.976;5.326;2023-02-04T02:58:27;103229.47;;;12.50;56.87
61554;BME280;47425;51.976;5.326;2023-02-04T03:00:56;103240.00;;;12.48;56.18
61554;BME280;47425;51.976;5.326;2023-02-04T03:03:25;103242.50;;;12.36;57.01
61554;BME280;47425;51.976;5.326;2023-02-04T03:05:58;103254.78;;;12.38;56.47
61554;BME280;47425;51.976;5.326;2023-02-04T03:08:27;103252.16;;;12.38;56.69
61554;BME280;47425;51.976;5.326;2023-02-04T03:10:53;103244.19;;;12.32;56.28
61554;BME280;47425;51.976;5.326;2023-02-04T03:13:21;103240.63;;;12.25;56.28
61554;BME280;47425;51.976;5.326;2023-02-04T03:15:49;103251.88;;;12.14;56.16
61554;BME280;47425;51.976;5.326;2023-02-04T03:18:18;103249.78;;;11.89;56.24
61554;BME280;47425;51.976;5.326;2023-02-04T03:20:45;103254.84;;;11.74;56.35
61554;BME280;47425;51.976;5.326;2023-02-04T03:23:13;103258.09;;;11.56;56.98
61554;BME280;47425;51.976;5.326;2023-02-04T03:25:41;103258.06;;;11.53;57.35
61554;BME280;47425;51.976;5.326;2023-02-04T03:30:50;103249.63;;;11.75;57.25
61554;BME280;47425;51.976;5.326;2023-02-04T03:33:21;103251.28;;;11.69;57.22
61554;BME280;47425;51.976;5.326;2023-02-04T03:35:48;103244.38;;;11.77;56.97
61554;BME280;47425;51.976;5.326;2023-02-04T03:38:16;103253.94;;;11.72;56.75
61554;BME280;47425;51.976;5.326;2023-02-04T03:40:42;103247.00;;;11.75;57.00
61554;BME280;47425;51.976;5.326;2023-02-04T03:43:10;103257.53;;;11.79;56.59
61554;BME280;47425;51.976;5.326;2023-02-04T03:45:37;103251.50;;;11.86;57.73
61554;BME280;47425;51.976;5.326;2023-02-04T03:48:05;103256.25;;;12.15;57.48
61554;BME280;47425;51.976;5.326;2023-02-04T03:50:32;103254.88;;;12.46;57.61
61554;BME280;47425;51.976;5.326;2023-02-04T03:52:59;103258.50;;;12.62;55.23
61554;BME280;47425;51.976;5.326;2023-02-04T03:55:26;103266.97;;;12.30;54.80
61554;BME280;47425;51.976;5.326;2023-02-04T03:57:52;103261.16;;;11.88;55.35
61554;BME280;47425;51.976;5.326;2023-02-04T04:00:20;103273.97;;;11.67;55.98
61554;BME280;47425;51.976;5.326;2023-02-04T04:02:47;103270.53;;;11.69;58.26
61554;BME280;47425;51.976;5.326;2023-02-04T04:05:15;103268.41;;;12.06;58.39
61554;BME280;47425;51.976;5.326;2023-02-04T04:07:42;103262.59;;;12.34;57.16
61554;BME280;47425;51.976;5.326;2023-02-04T04:10:10;103269.75;;;12.46;55.51
61554;BME280;47425;51.976;5.326;2023-02-04T04:12:37;103268.06;;;12.51;55.30
61554;BME280;47425;51.976;5.326;2023-02-04T04:15:06;103243.44;;;12.41;55.88
61554;BME280;47425;51.976;5.326;2023-02-04T04:17:32;103274.47;;;12.79;56.26
61554;BME280;47425;51.976;5.326;2023-02-04T04:19:59;103264.91;;;12.89;55.16
61554;BME280;47425;51.976;5.326;2023-02-04T04:22:27;103268.44;;;12.94;54.08
61554;BME280;47425;51.976;5.326;2023-02-04T04:24:54;103267.41;;;12.72;53.87
61554;BME280;47425;51.976;5.326;2023-02-04T04:27:22;103275.81;;;12.38;53.39
61554;BME280;47425;51.976;5.326;2023-02-04T04:29:48;103269.25;;;12.04;53.87
61554;BME280;47425;51.976;5.326;2023-02-04T04:32:15;103262.84;;;11.82;54.92
61554;BME280;47425;51.976;5.326;2023-02-04T04:34:41;103268.97;;;11.82;55.13
61554;BME280;47425;51.976;5.326;2023-02-04T04:37:09;103276.66;;;11.70;54.84
61554;BME280;47425;51.976;5.326;2023-02-04T04:39:37;103284.44;;;11.62;55.58
61554;BME280;47425;51.976;5.326;2023-02-04T04:42:04;103285.28;;;11.63;55.63
61554;BME280;47425;51.976;5.326;2023-02-04T04:44:31;103281.69;;;11.54;55.37
61554;BME280;47425;51.976;5.326;2023-02-04T04:46:58;103281.22;;;11.23;55.60
61554;BME280;47425;51.976;5.326;2023-02-04T04:49:24;103281.72;;;11.02;56.49
61554;BME280;47425;51.976;5.326;2023-02-04T04:51:51;103285.13;;;10.95;56.98
61554;BME280;47425;51.976;5.326;2023-02-04T04:54:19;103283.44;;;10.99;58.34
61554;BME280;47425;51.976;5.326;2023-02-04T04:56:47;103291.66;;;11.20;57.33
61554;BME280;47425;51.976;5.326;2023-02-04T04:59:13;103299.59;;;11.25;56.82
61554;BME280;47425;51.976;5.326;2023-02-04T05:01:40;103295.78;;;11.06;56.65
61554;BME280;47425;51.976;5.326;2023-02-04T05:04:21;103290.38;;;10.97;57.45
61554;BME280;47425;51.976;5.326;2023-02-04T05:06:48;103267.53;;;10.88;57.30
61554;BME280;47425;51.976;5.326;2023-02-04T05:09:15;103274.44;;;10.83;57.12
61554;BME280;47425;51.976;5.326;2023-02-04T05:11:41;103284.13;;;10.88;58.06
61554;BME280;47425;51.976;5.326;2023-02-04T05:14:10;103286.78;;;10.91;57.46
61554;BME280;47425;51.976;5.326;2023-02-04T05:16:37;103284.31;;;10.99;57.82
61554;BME280;47425;51.976;5.326;2023-02-04T05:19:04;103289.56;;;10.99;57.43
61554;BME280;47425;51.976;5.326;2023-02-04T05:21:31;103282.50;;;10.97;57.69
61554;BME280;47425;51.976;5.326;2023-02-04T05:24:01;103288.13;;;11.20;59.16
61554;BME280;47425;51.976;5.326;2023-02-04T05:26:27;103298.44;;;11.64;58.62
61554;BME280;47425;51.976;5.326;2023-02-04T05:28:54;103286.66;;;11.96;57.83
61554;BME280;47425;51.976;5.326;2023-02-04T05:31:23;103298.28;;;12.13;56.16
61554;BME280;47425;51.976;5.326;2023-02-04T05:33:50;103292.81;;;11.98;55.90
61554;BME280;47425;51.976;5.326;2023-02-04T05:36:16;103295.53;;;12.04;56.39
61554;BME280;47425;51.976;5.326;2023-02-04T05:38:43;103299.13;;;12.12;56.27
61554;BME280;47425;51.976;5.326;2023-02-04T05:41:11;103303.75;;;12.32;57.09
61554;BME280;47425;51.976;5.326;2023-02-04T05:43:38;103317.13;;;12.50;56.44
61554;BME280;47425;51.976;5.326;2023-02-04T05:46:04;103308.44;;;12.61;56.30
61554;BME280;47425;51.976;5.326;2023-02-04T05:48:34;103319.16;;;12.79;55.82
61554;BME280;47425;51.976;5.326;2023-02-04T05:51:00;103316.69;;;12.95;56.06
61554;BME280;47425;51.976;5.326;2023-02-04T05:53:27;103321.28;;;13.19;55.46
61554;BME280;47425;51.976;5.326;2023-02-04T05:55:53;103318.81;;;13.37;54.79
61554;BME280;47425;51.976;5.326;2023-02-04T05:58:21;103319.03;;;13.64;54.04
61554;BME280;47425;51.976;5.326;2023-02-04T06:00:48;103331.31;;;13.66;53.76
61554;BME280;47425;51.976;5.326;2023-02-04T06:03:14;103327.84;;;13.75;53.32
61554;BME280;47425;51.976;5.326;2023-02-04T06:05:46;103334.03;;;13.80;53.80
61554;BME280;47425;51.976;5.326;2023-02-04T06:08:13;103347.19;;;13.72;52.83
61554;BME280;47425;51.976;5.326;2023-02-04T06:10:41;103352.25;;;13.49;53.81
61554;BME280;47425;51.976;5.326;2023-02-04T06:13:08;103353.09;;;13.43;53.65
61554;BME280;47425;51.976;5.326;2023-02-04T06:15:36;103358.44;;;13.53;53.98
61554;BME280;47425;51.976;5.326;2023-02-04T06:18:02;103363.69;;;13.51;53.14
61554;BME280;47425;51.976;5.326;2023-02-04T06:20:29;103358.25;;;13.34;54.45
61554;BME280;47425;51.976;5.326;2023-02-04T06:22:57;103366.28;;;13.45;54.44
61554;BME280;47425;51.976;5.326;2023-02-04T06:25:25;103361.91;;;13.47;52.96
61554;BME280;47425;51.976;5.326;2023-02-04T06:27:51;103360.94;;;13.37;54.46
61554;BME280;47425;51.976;5.326;2023-02-04T06:30:18;103359.91;;;13.23;53.50
61554;BME280;47425;51.976;5.326;2023-02-04T06:32:46;103371.34;;;13.26;54.46
61554;BME280;47425;51.976;5.326;2023-02-04T06:35:12;103372.38;;;13.41;53.61
61554;BME280;47425;51.976;5.326;2023-02-04T06:37:40;103367.19;;;13.47;54.03
61554;BME280;47425;51.976;5.326;2023-02-04T06:40:23;103381.19;;;13.46;54.24
61554;BME280;47425;51.976;5.326;2023-02-04T06:42:51;103391.72;;;13.48;53.20
61554;BME280;47425;51.976;5.326;2023-02-04T06:45:18;103388.97;;;13.34;53.61
61554;BME280;47425;51.976;5.326;2023-02-04T06:47:44;103391.41;;;13.14;53.34
61554;BME280;47425;51.976;5.326;2023-02-04T06:50:11;103397.41;;;13.00;54.24
61554;BME280;47425;51.976;5.326;2023-02-04T06:53:02;103388.56;;;12.90;54.75
61554;BME280;47425;51.976;5.326;2023-02-04T06:55:30;103394.69;;;12.94;54.65
61554;BME280;47425;51.976;5.326;2023-02-04T06:57:57;103399.91;;;12.88;53.98
61554;BME280;47425;51.976;5.326;2023-02-04T07:00:23;103396.22;;;12.70;54.41
61554;BME280;47425;51.976;5.326;2023-02-04T07:02:51;103403.03;;;12.56;54.20
61554;BME280;47425;51.976;5.326;2023-02-04T07:05:18;103414.19;;;12.38;54.37
61554;BME280;47425;51.976;5.326;2023-02-04T07:07:45;103413.78;;;12.08;54.44
61554;BME280;47425;51.976;5.326;2023-02-04T07:10:11;103415.84;;;11.73;55.55
61554;BME280;47425;51.976;5.326;2023-02-04T07:12:41;103383.84;;;11.42;55.78
61554;BME280;47425;51.976;5.326;2023-02-04T07:15:08;103411.03;;;11.46;56.24
61554;BME280;47425;51.976;5.326;2023-02-04T07:17:35;103408.94;;;11.28;56.51
61554;BME280;47425;51.976;5.326;2023-02-04T07:20:03;103402.78;;;11.24;57.11
61554;BME280;47425;51.976;5.326;2023-02-04T07:22:30;103415.81;;;11.21;56.98
61554;BME280;47425;51.976;5.326;2023-02-04T07:24:56;103421.75;;;11.11;57.13
61554;BME280;47425;51.976;5.326;2023-02-04T07:27:23;103424.09;;;10.97;57.57
61554;BME280;47425;51.976;5.326;2023-02-04T07:29:52;103414.19;;;10.80;57.78
61554;BME280;47425;51.976;5.326;2023-02-04T07:32:19;103420.41;;;10.87;58.60
61554;BME280;47425;51.976;5.326;2023-02-04T07:34:45;103422.22;;;10.89;58.75
61554;BME280;47425;51.976;5.326;2023-02-04T07:37:12;103419.81;;;11.00;58.45
61554;BME280;47425;51.976;5.326;2023-02-04T07:39:39;103429.34;;;10.97;58.19
61554;BME280;47425;51.976;5.326;2023-02-04T07:42:06;103429.94;;;10.82;58.16
61554;BME280;47425;51.976;5.326;2023-02-04T07:44:42;103434.13;;;10.73;58.66
61554;BME280;47425;51.976;5.326;2023-02-04T07:47:11;103426.41;;;10.80;59.28
61554;BME280;47425;51.976;5.326;2023-02-04T07:49:37;103431.69;;;10.83;58.69
61554;BME280;47425;51.976;5.326;2023-02-04T07:52:04;103435.09;;;10.77;58.74
61554;BME280;47425;51.976;5.326;2023-02-04T07:54:30;103439.22;;;10.66;59.07
61554;BME280;47425;51.976;5.326;2023-02-04T07:56:58;103450.16;;;10.46;59.33
61554;BME280;47425;51.976;5.326;2023-02-04T07:59:25;103458.91;;;10.47;61.39
61554;BME280;47425;51.976;5.326;2023-02-04T08:01:51;103454.69;;;10.96;62.19
61554;BME280;47425;51.976;5.326;2023-02-04T08:04:20;103459.16;;;11.49;61.21
61554;BME280;47425;51.976;5.326;2023-02-04T08:06:48;103466.19;;;11.99;59.86
61554;BME280;47425;51.976;5.326;2023-02-04T08:09:14;103465.88;;;12.39;58.03
61554;BME280;47425;51.976;5.326;2023-02-04T08:11:41;103472.41;;;12.67;57.39
61554;BME280;47425;51.976;5.326;2023-02-04T08:14:09;103470.94;;;12.91;56.44
61554;BME280;47425;51.976;5.326;2023-02-04T08:16:35;103485.13;;;13.04;55.49
61554;BME280;47425;51.976;5.326;2023-02-04T08:19:02;103491.28;;;13.06;54.82
61554;BME280;47425;51.976;5.326;2023-02-04T08:21:29;103485.78;;;12.84;54.69
61554;BME280;47425;51.976;5.326;2023-02-04T08:23:57;103491.84;;;12.79;55.03
61554;BME280;47425;51.976;5.326;2023-02-04T08:26:24;103492.44;;;12.57;55.40
61554;BME280;47425;51.976;5.326;2023-02-04T08:28:50;103494.00;;;12.45;55.60
61554;BME280;47425;51.976;5.326;2023-02-04T08:31:17;103489.41;;;12.31;56.11
61554;BME280;47425;51.976;5.326;2023-02-04T08:33:45;103495.72;;;12.42;56.29
61554;BME280;47425;51.976;5.326;2023-02-04T08:36:11;103494.25;;;12.63;56.13
61554;BME280;47425;51.976;5.326;2023-02-04T08:38:39;103496.13;;;12.72;55.14
61554;BME280;47425;51.976;5.326;2023-02-04T08:41:07;103493.13;;;12.46;55.55
61554;BME280;47425;51.976;5.326;2023-02-04T08:43:34;103506.09;;;12.33;55.84
61554;BME280;47425;51.976;5.326;2023-02-04T08:46:01;103498.59;;;12.01;56.07
61554;BME280;47425;51.976;5.326;2023-02-04T08:48:27;103496.53;;;11.83;56.88
61554;BME280;47425;51.976;5.326;2023-02-04T08:50:55;103496.50;;;11.82;57.38
61554;BME280;47425;51.976;5.326;2023-02-04T08:53:22;103502.78;;;11.91;57.63
61554;BME280;47425;51.976;5.326;2023-02-04T08:55:50;103504.69;;;11.99;57.34
61554;BME280;47425;51.976;5.326;2023-02-04T08:58:16;103510.13;;;12.11;57.11
61554;BME280;47425;51.976;5.326;2023-02-04T09:00:44;103515.16;;;11.96;57.29
61554;BME280;47425;51.976;5.326;2023-02-04T09:03:11;103516.09;;;12.01;57.69
61554;BME280;47425;51.976;5.326;2023-02-04T09:05:37;103510.94;;;12.07;57.50
61554;BME280;47425;51.976;5.326;2023-02-04T09:08:05;103514.56;;;12.15;57.78
61554;BME280;47425;51.976;5.326;2023-02-04T09:10:32;103526.97;;;12.24;57.17
61554;BME280;47425;51.976;5.326;2023-02-04T09:13:00;103521.53;;;12.10;57.23
61554;BME280;47425;51.976;5.326;2023-02-04T09:15:26;103530.47;;;12.24;58.72
61554;BME280;47425;51.976;5.326;2023-02-04T09:17:54;103529.34;;;12.65;58.14
61554;BME280;47425;51.976;5.326;2023-02-04T09:20:30;103528.13;;;13.04;56.88
61554;BME280;47425;51.976;5.326;2023-02-04T09:22:56;103523.59;;;12.94;55.67
61554;BME280;47425;51.976;5.326;2023-02-04T09:25:23;103526.63;;;12.61;57.51
61554;BME280;47425;51.976;5.326;2023-02-04T09:27:50;103523.97;;;12.57;56.61
61554;BME280;47425;51.976;5.326;2023-02-04T09:30:18;103533.41;;;12.45;56.67
61554;BME280;47425;51.976;5.326;2023-02-04T09:32:45;103530.56;;;12.29;56.93
61554;BME280;47425;51.976;5.326;2023-02-04T09:35:32;103523.66;;;12.34;57.76
61554;BME280;47425;51.976;5.326;2023-02-04T09:37:59;103526.38;;;12.42;57.40
61554;BME280;47425;51.976;5.326;2023-02-04T09:40:28;103516.81;;;12.49;59.42
61554;BME280;47425;51.976;5.326;2023-02-04T09:42:58;103528.38;;;12.58;57.18
61554;BME280;47425;51.976;5.326;2023-02-04T09:45:28;103528.78;;;12.88;60.46
61554;BME280;47425;51.976;5.326;2023-02-04T09:48:01;103525.16;;;13.50;58.80
61554;BME280;47425;51.976;5.326;2023-02-04T09:50:29;103535.16;;;13.88;58.75
61554;BME280;47425;51.976;5.326;2023-02-04T09:52:59;103538.88;;;14.09;57.17
61554;BME280;47425;51.976;5.326;2023-02-04T09:55:31;103541.66;;;14.32;58.57
61554;BME280;47425;51.976;5.326;2023-02-04T09:57:59;103548.09;;;14.68;56.80
61554;BME280;47425;51.976;5.326;2023-02-04T10:00:29;103537.38;;;14.48;53.40
61554;BME280;47425;51.976;5.326;2023-02-04T10:02:57;103543.16;;;13.99;53.91
61554;BME280;47425;51.976;5.326;2023-02-04T10:05:28;103540.00;;;13.43;54.36
61554;BME280;47425;51.976;5.326;2023-02-04T10:08:17;103551.66;;;12.95;55.46
61554;BME280;47425;51.976;5.326;2023-02-04T10:10:47;103557.91;;;13.03;60.07
61554;BME280;47425;51.976;5.326;2023-02-04T10:13:16;103544.56;;;13.62;59.80
61554;BME280;47425;51.976;5.326;2023-02-04T10:15:45;103558.31;;;14.26;57.28
61554;BME280;47425;51.976;5.326;2023-02-04T10:18:21;103564.66;;;14.52;55.77
61554;BME280;47425;51.976;5.326;2023-02-04T10:20:49;103556.69;;;14.44;56.35
61554;BME280;47425;51.976;5.326;2023-02-04T10:23:18;103564.59;;;14.41;56.22
61554;BME280;47425;51.976;5.326;2023-02-04T10:25:45;103555.91;;;14.59;54.81
61554;BME280;47425;51.976;5.326;2023-02-04T10:28:12;103568.38;;;14.79;57.36
61554;BME280;47425;51.976;5.326;2023-02-04T10:30:42;103557.13;;;15.21;57.29
61554;BME280;47425;51.976;5.326;2023-02-04T10:33:15;103559.88;;;15.55;56.16
61554;BME280;47425;51.976;5.326;2023-02-04T10:35:45;103561.72;;;15.89;55.50
61554;BME280;47425;51.976;5.326;2023-02-04T10:38:12;103565.25;;;16.25;52.88
61554;BME280;47425;51.976;5.326;2023-02-04T10:40:40;103565.22;;;16.47;53.85
61554;BME280;47425;51.976;5.326;2023-02-04T10:43:08;103547.53;;;16.69;53.66
61554;BME280;47425;51.976;5.326;2023-02-04T10:45:37;103564.22;;;17.05;52.70
61554;BME280;47425;51.976;5.326;2023-02-04T10:48:04;103571.31;;;16.84;52.46
61554;BME280;47425;51.976;5.326;2023-02-04T10:50:33;103550.13;;;16.86;53.08
61554;BME280;47425;51.976;5.326;2023-02-04T10:53:01;103570.28;;;17.30;52.25
61554;BME280;47425;51.976;5.326;2023-02-04T10:55:46;103571.13;;;17.32;51.29
61554;BME280;47425;51.976;5.326;2023-02-04T10:58:22;103571.06;;;17.48;51.84
61554;BME280;47425;51.976;5.326;2023-02-04T11:00:51;103573.56;;;17.74;49.54
61554;BME280;47425;51.976;5.326;2023-02-04T11:03:21;103563.78;;;17.77;50.79
61554;BME280;47425;51.976;5.326;2023-02-04T11:06:17;103559.31;;;17.92;50.51
61554;BME280;47425;51.976;5.326;2023-02-04T11:08:47;103549.03;;;17.35;50.16
61554;BME280;47425;51.976;5.326;2023-02-04T11:11:17;103572.84;;;17.42;51.20
61554;BME280;47425;51.976;5.326;2023-02-04T11:13:57;103575.44;;;17.52;48.36
61554;BME280;47425;51.976;5.326;2023-02-04T11:16:26;103574.63;;;17.42;48.74
61554;BME280;47425;51.976;5.326;2023-02-04T11:18:55;103579.97;;;17.30;51.30
61554;BME280;47425;51.976;5.326;2023-02-04T11:21:26;103571.28;;;17.01;47.08
61554;BME280;47425;51.976;5.326;2023-02-04T11:24:04;103565.22;;;16.31;48.54
61554;BME280;47425;51.976;5.326;2023-02-04T11:26:34;103565.22;;;15.92;48.70
61554;BME280;47425;51.976;5.326;2023-02-04T11:29:24;103565.19;;;15.69;52.31
61554;BME280;47425;51.976;5.326;2023-02-04T11:32:00;103561.56;;;15.30;50.18
61554;BME280;47425;51.976;5.326;2023-02-04T11:34:43;103564.25;;;15.36;52.69
61554;BME280;47425;51.976;5.326;2023-02-04T11:37:27;103555.50;;;15.74;52.95
61554;BME280;47425;51.976;5.326;2023-02-04T11:39:57;103560.84;;;16.04;49.74
61554;BME280;47425;51.976;5.326;2023-02-04T11:42:30;103558.22;;;16.04;52.18
61554;BME280;47425;51.976;5.326;2023-02-04T11:45:01;103554.69;;;16.06;51.55
61554;BME280;47425;51.976;5.326;2023-02-04T11:47:34;103555.56;;;16.33;51.97
61554;BME280;47425;51.976;5.326;2023-02-04T11:50:10;103556.38;;;16.69;51.20
61554;BME280;47425;51.976;5.326;2023-02-04T11:52:39;103556.28;;;17.03;50.42
61554;BME280;47425;51.976;5.326;2023-02-04T11:55:09;103565.03;;;17.21;49.75
61554;BME280;47425;51.976;5.326;2023-02-04T11:57:37;103563.41;;;16.76;47.54
61554;BME280;47425;51.976;5.326;2023-02-04T12:00:05;103564.31;;;16.54;48.27
61554;BME280;47425;51.976;5.326;2023-02-04T12:02:41;103558.22;;;16.04;50.46
61554;BME280;47425;51.976;5.326;2023-02-04T12:05:12;103563.47;;;15.90;51.40
61554;BME280;47425;51.976;5.326;2023-02-04T12:07:41;103543.22;;;16.21;49.82
61554;BME280;47425;51.976;5.326;2023-02-04T12:10:11;103564.38;;;16.21;49.83
61554;BME280;47425;51.976;5.326;2023-02-04T12:12:42;103555.53;;;16.18;47.26
61554;BME280;47425;51.976;5.326;2023-02-04T12:15:14;103557.28;;;15.77;47.35
61554;BME280;47425;51.976;5.326;2023-02-04T12:17:43;103535.06;;;15.02;48.12
61554;BME280;47425;51.976;5.326;2023-02-04T12:20:11;103566.84;;;15.32;52.21
61554;BME280;47425;51.976;5.326;2023-02-04T12:22:39;103561.66;;;15.72;51.49
61554;BME280;47425;51.976;5.326;2023-02-04T12:25:07;103558.03;;;15.22;48.79
61554;BME280;47425;51.976;5.326;2023-02-04T12:27:34;103569.41;;;15.07;50.46
61554;BME280;47425;51.976;5.326;2023-02-04T12:30:10;103571.31;;;15.51;52.28
61554;BME280;47425;51.976;5.326;2023-02-04T12:32:38;103573.19;;;15.97;51.39
61554;BME280;47425;51.976;5.326;2023-02-04T12:35:05;103574.06;;;16.27;50.53
61554;BME280;47425;51.976;5.326;2023-02-04T12:37:32;103582.88;;;16.07;49.38
61554;BME280;47425;51.976;5.326;2023-02-04T12:39:59;103572.19;;;15.52;46.33
61554;BME280;47425;51.976;5.326;2023-02-04T12:42:27;103575.56;;;15.10;49.12
61554;BME280;47425;51.976;5.326;2023-02-04T12:44:53;103576.09;;;14.54;47.99
61554;BME280;47425;51.976;5.326;2023-02-04T12:47:20;103571.81;;;14.65;52.68
61554;BME280;47425;51.976;5.326;2023-02-04T12:49:47;103573.84;;;15.19;49.62
61554;BME280;47425;51.976;5.326;2023-02-04T12:52:14;103572.03;;;15.05;50.08
61554;BME280;47425;51.976;5.326;2023-02-04T12:54:41;103578.13;;;14.93;51.99
61554;BME280;47425;51.976;5.326;2023-02-04T12:57:08;103576.50;;;15.28;52.61
61554;BME280;47425;51.976;5.326;2023-02-04T12:59:38;103567.84;;;15.74;50.08